East Leverett, Massachusetts
Current Conditions -  °F | °C
As of 8:52 AM on Monday 22 Dec 2014 (Local Time) from KORE Reporting Station
Overcast Overcast  
Wind Chill: 33°   Ceiling: 4000
Heat Index: 33°   Visibility: 10mi
Dew Point: 28°   Wind: 3mph
Humidity: 82%   Direction: 350°N
Pressure: 30.36"   Gusts: NA
Location:  42.4786°N, 72.4839°W
Report Text: KORE 221352Z AUTO 35003KT 10SM SCT017 OVC040 01/M02 A3036 RMK AO2 SLP288 T00061022
Loading
Personal Weather Stations






























Interactive Weather Map New forecast layout! Learn more

10-Day Weather Forecast

Advertisements
Track Severe Weather on mobile